Accueil
METAR-TAF:

METAR-TAF

Aéroports :

Aéroport international de Cardiff

Cardiff, Pays de Galles

latitude: 51-24N, longitude: 003-21W, altitude: 67 m

Observation

Le bulletin a été fait il y a 38 minutes, à 01:50 UTC
Vent 13 kt de ouest/nord-ouest
Température 8°C
Humidité 87%
Pression 1026 hPa
Visibilité 10 km ou plus
Nuages fragmentés à une hauteur de 2800 ft

METAR: EGFF 100150Z AUTO 29013KT 9999 BKN028 08/06 Q1026

Heure: 02:28 (02:28 UTC)

Prévision

Le bulletin a été fait il y a 3 heures et 25 minutes, à 23:03 UTC
Prévision valable du 10 à 00 UTC au 10 à 24 UTC
Vent 16 kt de ouest/nord-ouest
Visibilité 10 km ou plus
Nuages épars à une hauteur de 3000 ft
Evoluant progressivement
du 10 à 03 UTC au 10 à 06 UTC
Vent 6 kt de nord-ouest
Probabilité 30%
du 10 à 19 UTC au 10 à 24 UTC
Visibilité: 6000 m

TAF: EGFF 092303Z 1000/1024 29016KT 9999 SCT030 BECMG 1003/1006 31006KT PROB30 1019/1024 6000

Observations et prévisions météorologiques de plus de 4000 aéroports (messages METAR et TAF).

Les stations disponibles sont représentées par des disques jaunes et rouges sur la carte.

Passer la souris dessus pour voir le nom de la station.

Cliquer dessus pour voir les observations et prévisions météorologiques.

Pour changer de carte: cliquez sur les boutons verts avec une croix noire pour zoomer, sur le bouton vert avec un tiret pour effectuer un zoom arrière, ou sur les flèches vertes pour les cartes adjacentes.


METAR-TAF: